Time;durP1;ratioP1;P1;durP2;ratioP2;P2;SDS_P1;SDS_P2;PMS_P1;PMS_P2;Temp;Humidity;BMP_temperature;BMP_pressure;BME280_temperature;BME280_humidity;BME280_pressure;Samples;Min_cycle;Max_cycle;Signal;HPM_P1;HPM_P2
2022/05/23 00:01:52;;;;;;;5.70;1.73;;;13.40;99.90;;;;;;5050451;28;20044;-85
2022/05/23 00:04:17;;;;;;;6.53;2.00;;;13.30;99.90;;;;;;5066761;28;20050;-85
2022/05/23 00:06:49;;;;;;;4.18;1.52;;;13.80;99.90;;;;;;5050135;28;20118;-85
2022/05/23 00:09:15;;;;;;;7.50;2.00;;;13.30;99.90;;;;;;5050233;28;20048;-84
2022/05/23 00:11:41;;;;;;;7.07;2.20;;;13.30;99.90;;;;;;5050664;28;20084;-84
2022/05/23 00:14:10;;;;;;;6.55;2.05;;;13.30;99.90;;;;;;5048341;28;20086;-84
2022/05/23 00:16:43;;;;;;;6.22;1.92;;;13.40;99.90;;;;;;5067442;28;20037;-84
2022/05/23 00:19:10;;;;;;;;;;;13.40;99.90;;;;;;5067401;28;20048;-85
2022/05/23 00:21:38;;;;;;;7.88;1.75;;;13.20;99.90;;;;;;5049593;28;20252;-84
2022/05/23 00:24:04;;;;;;;8.68;1.88;;;13.10;99.90;;;;;;5049161;28;20048;-84
2022/05/23 00:26:29;;;;;;;6.63;1.95;;;13.10;99.90;;;;;;5066622;28;20721;-84
2022/05/23 00:28:55;;;;;;;7.50;2.03;;;13.00;99.90;;;;;;5065722;28;20052;-84
2022/05/23 00:31:21;;;;;;;6.40;2.30;;;13.00;99.90;;;;;;5066508;28;20487;-83
2022/05/23 00:36:33;;;;;;;9.13;2.75;;;12.70;99.90;;;;;;5066744;28;20099;-84
2022/05/23 00:38:59;;;;;;;7.22;2.40;;;12.60;99.90;;;;;;5050173;28;20410;-84
2022/05/23 00:44:15;;;;;;;8.02;2.40;;;12.60;99.90;;;;;;5065386;28;20055;-85
2022/05/23 00:46:54;;;;;;;8.13;2.50;;;12.60;99.90;;;;;;5067185;28;20060;-84
2022/05/23 00:49:24;;;;;;;11.80;3.25;;;12.50;99.90;;;;;;5065434;28;20500;-85
2022/05/23 00:51:50;;;;;;;7.55;2.70;;;12.40;99.90;;;;;;5066531;28;20046;-84
2022/05/23 00:54:18;;;;;;;6.85;2.63;;;12.50;99.90;;;;;;5066132;28;20048;-84
2022/05/23 00:56:47;;;;;;;8.68;2.72;;;12.30;99.90;;;;;;5066076;28;20347;-84
2022/05/23 00:59:26;;;;;;;8.95;3.38;;;12.30;99.90;;;;;;5065866;28;20468;-85
2022/05/23 01:01:52;;;;;;;8.00;3.08;;;12.20;99.90;;;;;;5065368;28;20090;-84
2022/05/23 01:04:18;;;;;;;7.15;3.33;;;12.20;99.90;;;;;;5065761;28;20084;-84
2022/05/23 01:06:43;;;;;;;8.55;2.67;;;12.60;99.90;;;;;;5066175;28;20087;-85
2022/05/23 01:09:10;;;;;;;15.10;3.20;;;12.10;99.90;;;;;;5082025;28;20060;-85
2022/05/23 01:11:37;;;;;;;15.98;3.30;;;12.10;99.90;;;;;;5066740;28;20040;-85
2022/05/23 01:14:11;;;;;;;8.63;2.95;;;12.00;99.90;;;;;;5065219;28;20090;-85
2022/05/23 01:16:37;;;;;;;7.53;3.30;;;12.10;99.90;;;;;;5065467;28;20128;-85
2022/05/23 01:19:03;;;;;;;4.97;2.67;;;12.00;99.90;;;;;;5065921;28;20080;-85
2022/05/23 01:21:41;;;;;;;9.13;3.28;;;12.20;99.90;;;;;;5066784;28;20064;-86
2022/05/23 01:24:11;;;;;;;7.53;3.40;;;11.90;99.90;;;;;;5048179;28;20053;-85
2022/05/23 01:26:37;;;;;;;8.15;3.75;;;11.90;99.90;;;;;;5066093;28;20048;-85
2022/05/23 01:29:10;;;;;;;9.05;3.65;;;12.00;99.90;;;;;;5065454;28;20044;-86
2022/05/23 01:31:35;;;;;;;8.25;3.92;;;11.90;99.90;;;;;;5048813;28;20484;-86
2022/05/23 01:34:01;;;;;;;8.77;3.85;;;11.70;99.90;;;;;;5049566;28;20063;-85
2022/05/23 01:36:27;;;;;;;10.88;3.97;;;11.70;99.90;;;;;;5065920;28;20365;-85
2022/05/23 01:38:52;;;;;;;8.68;3.90;;;11.80;99.90;;;;;;5067548;28;20075;-86
2022/05/23 01:41:18;;;;;;;10.68;3.90;;;11.80;99.90;;;;;;5052699;28;20046;-86
2022/05/23 01:43:43;;;;;;;7.30;3.90;;;11.70;99.90;;;;;;5052142;28;20049;-86
2022/05/23 01:46:10;;;;;;;8.38;3.92;;;11.60;99.90;;;;;;5068681;28;20040;-86
2022/05/23 01:48:35;;;;;;;8.63;3.70;;;11.60;99.90;;;;;;5052331;28;20052;-85
2022/05/23 01:51:01;;;;;;;10.35;3.88;;;11.50;99.90;;;;;;5052482;28;20052;-85
2022/05/23 01:53:26;;;;;;;10.05;3.88;;;11.40;99.90;;;;;;5052993;28;20446;-86
2022/05/23 01:55:53;;;;;;;10.73;4.32;;;11.40;99.90;;;;;;5069399;28;20041;-85
2022/05/23 02:01:12;;;;;;;9.27;4.45;;;11.40;99.90;;;;;;5050799;28;20327;-85
2022/05/23 02:01:13;;;;;;;9.25;4.53;;;11.70;99.90;;;;;;5069155;28;20101;-85
2022/05/23 02:03:39;;;;;;;10.05;4.35;;;11.40;99.90;;;;;;5052824;28;20082;-86
2022/05/23 02:06:05;;;;;;;11.18;4.70;;;11.50;99.90;;;;;;5051391;28;20046;-86
2022/05/23 02:08:31;;;;;;;9.13;3.90;;;11.50;99.90;;;;;;5052478;28;20045;-84
2022/05/23 02:10:56;;;;;;;6.63;3.72;;;11.50;99.90;;;;;;5052727;28;20094;-85
2022/05/23 02:13:22;;;;;;;12.05;4.00;;;11.90;99.90;;;;;;5067222;28;20856;-85
2022/05/23 02:15:47;;;;;;;7.82;4.00;;;11.60;99.90;;;;;;5053027;28;20129;-86
2022/05/23 02:18:13;;;;;;;10.18;4.15;;;12.00;99.90;;;;;;5068822;28;20545;-86
2022/05/23 02:20:39;;;;;;;7.60;4.05;;;11.70;99.90;;;;;;5051493;28;20037;-86
2022/05/23 02:23:05;;;;;;;10.55;3.80;;;11.70;99.90;;;;;;5068443;28;20055;-85
2022/05/23 02:25:34;;;;;;;10.55;3.92;;;12.10;99.90;;;;;;5069079;28;20048;-85
2022/05/23 02:28:00;;;;;;;17.73;4.57;;;12.00;99.90;;;;;;5067757;28;20403;-86
2022/05/23 02:30:25;;;;;;;7.88;3.60;;;11.90;99.90;;;;;;5068292;28;20123;-85
2022/05/23 02:32:53;;;;;;;8.73;3.50;;;11.90;99.90;;;;;;5052158;28;20045;-85
2022/05/23 02:35:21;;;;;;;8.70;3.33;;;11.90;99.90;;;;;;5051167;28;20044;-85
2022/05/23 02:37:48;;;;;;;9.10;4.03;;;11.80;99.90;;;;;;5068692;28;20040;-85
2022/05/23 02:40:14;;;;;;;10.73;3.15;;;11.80;99.90;;;;;;5084802;28;20105;-85
2022/05/23 02:42:39;;;;;;;9.00;3.28;;;12.00;99.90;;;;;;5051268;28;20036;-84
2022/05/23 02:45:06;;;;;;;8.70;3.60;;;11.90;99.90;;;;;;5068261;28;20044;-85
2022/05/23 02:47:32;;;;;;;9.15;3.35;;;11.90;99.90;;;;;;5067764;28;20378;-84
2022/05/23 02:49:59;;;;;;;7.57;3.53;;;12.00;99.90;;;;;;5051238;28;20048;-85
2022/05/23 02:52:24;;;;;;;7.20;3.40;;;11.90;99.90;;;;;;5051212;28;20054;-84
2022/05/23 02:54:50;;;;;;;7.57;3.55;;;11.90;99.90;;;;;;5067224;28;20048;-85
2022/05/23 02:57:16;;;;;;;7.40;3.17;;;11.90;99.90;;;;;;5051349;28;20044;-85
2022/05/23 02:59:41;;;;;;;8.00;3.47;;;11.90;99.90;;;;;;5084113;28;20053;-85
2022/05/23 03:04:52;;;;;;;9.05;3.45;;;11.80;99.90;;;;;;5068844;28;20048;-86
2022/05/23 03:07:17;;;;;;;7.97;3.40;;;11.80;99.90;;;;;;5084767;28;20377;-85
2022/05/23 03:09:44;;;;;;;9.90;3.67;;;11.80;99.90;;;;;;5084011;28;20482;-85
2022/05/23 03:12:11;;;;;;;16.67;3.88;;;11.80;99.90;;;;;;5067572;28;20428;-85
2022/05/23 03:14:37;;;;;;;10.75;3.72;;;11.70;99.90;;;;;;5050806;28;20048;-85
2022/05/23 03:17:05;;;;;;;10.10;4.07;;;11.70;99.90;;;;;;5067074;28;20048;-86
2022/05/23 03:19:31;;;;;;;8.73;3.58;;;11.70;99.90;;;;;;5067448;28;20045;-85
2022/05/23 03:27:32;;;;;;;12.77;3.97;;;11.70;99.90;;;;;;5067679;28;20045;-86
2022/05/23 03:29:58;;;;;;;7.40;3.60;;;11.70;99.90;;;;;;5065743;28;20048;-86
2022/05/23 03:32:23;;;;;;;6.88;3.30;;;11.70;99.90;;;;;;5050774;28;20060;-86
2022/05/23 03:34:49;;;;;;;7.07;3.30;;;11.70;99.90;;;;;;5050879;28;20075;-86
2022/05/23 03:37:14;;;;;;;8.80;3.47;;;11.70;99.90;;;;;;5053250;28;20052;-85
2022/05/23 03:39:49;;;;;;;6.28;3.30;;;11.60;99.90;;;;;;5051175;28;20054;-85
2022/05/23 03:42:15;;;;;;;8.38;3.42;;;11.60;99.90;;;;;;5067089;28;20051;-86
2022/05/23 03:44:40;;;;;;;8.07;3.00;;;11.90;99.90;;;;;;5049554;28;20044;-86
2022/05/23 03:47:06;;;;;;;12.23;3.40;;;11.60;99.90;;;;;;5049801;28;20040;-85
2022/05/23 03:49:32;;;;;;;5.85;3.20;;;11.70;99.90;;;;;;5067415;28;20048;-86
2022/05/23 03:51:58;;;;;;;8.00;3.38;;;12.10;99.90;;;;;;5066621;28;20044;-86
2022/05/23 03:54:25;;;;;;;9.63;3.30;;;11.80;99.90;;;;;;5050254;28;20579;-86
2022/05/23 03:56:50;;;;;;;11.82;2.95;;;11.80;99.90;;;;;;5050677;28;20139;-85
2022/05/23 03:59:16;;;;;;;7.40;3.10;;;11.90;99.90;;;;;;5065219;28;20141;-86
2022/05/23 04:01:42;;;;;;;9.13;3.33;;;12.00;99.90;;;;;;5066646;28;20090;-86
2022/05/23 04:04:07;;;;;;;9.77;3.25;;;12.10;99.90;;;;;;5049795;28;20048;-86
2022/05/23 04:06:35;;;;;;;7.30;3.10;;;12.40;99.90;;;;;;5066651;28;20466;-85
2022/05/23 04:09:01;;;;;;;8.38;3.17;;;12.10;99.90;;;;;;5066462;28;20058;-85
2022/05/23 04:11:26;;;;;;;6.43;2.88;;;12.20;99.90;;;;;;5066796;28;20033;-85
2022/05/23 04:13:52;;;;;;;6.15;2.63;;;12.20;99.90;;;;;;5051002;28;20055;-85
2022/05/23 04:16:18;;;;;;;9.55;3.08;;;12.50;99.90;;;;;;5066429;28;20040;-85
2022/05/23 04:18:44;;;;;;;9.40;3.35;;;12.50;99.90;;;;;;5051969;28;20483;-85
2022/05/23 04:21:09;;;;;;;6.85;2.70;;;12.30;99.90;;;;;;5067656;28;20510;-86
2022/05/23 04:23:35;;;;;;;8.73;3.58;;;12.30;99.90;;;;;;5085852;28;20055;-85
2022/05/23 04:26:06;;;;;;;13.45;3.58;;;12.30;99.90;;;;;;5069019;28;20384;-85
2022/05/23 04:28:33;;;;;;;8.98;3.38;;;12.30;99.90;;;;;;5069336;28;20408;-84
2022/05/23 04:30:59;;;;;;;8.38;2.95;;;12.30;99.90;;;;;;5070548;28;20040;-84
2022/05/23 04:36:09;;;;;;;6.45;2.92;;;12.40;99.90;;;;;;5087267;28;20044;-85
2022/05/23 04:38:35;;;;;;;8.70;2.88;;;12.40;99.90;;;;;;5069790;28;20165;-86
2022/05/23 04:41:00;;;;;;;12.48;3.47;;;12.40;99.90;;;;;;5067834;28;20062;-85
2022/05/23 04:43:26;;;;;;;9.07;2.88;;;12.40;99.90;;;;;;5048987;28;20404;-84
2022/05/23 04:45:52;;;;;;;8.13;3.40;;;12.50;99.90;;;;;;5067084;28;20488;-84
2022/05/23 04:51:02;;;;;;;11.10;3.55;;;12.50;99.90;;;;;;5066190;28;20411;-85
2022/05/23 04:53:28;;;;;;;14.75;3.08;;;12.60;99.90;;;;;;5066576;28;20060;-84
2022/05/23 04:55:54;;;;;;;7.95;3.42;;;12.60;99.90;;;;;;5065477;28;20381;-84
2022/05/23 04:58:20;;;;;;;9.02;2.80;;;12.60;99.90;;;;;;5048993;28;20040;-84
2022/05/23 05:00:46;;;;;;;7.57;3.42;;;12.60;99.90;;;;;;5083914;28;20041;-84
2022/05/23 05:03:12;;;;;;;9.75;3.50;;;12.70;99.90;;;;;;5048222;28;20403;-85
2022/05/23 05:05:37;;;;;;;7.60;3.20;;;12.80;99.90;;;;;;5066586;28;20055;-85
2022/05/23 05:08:04;;;;;;;7.32;3.28;;;12.90;99.90;;;;;;5047709;28;20250;-84
2022/05/23 05:10:30;;;;;;;8.40;3.30;;;13.00;99.90;;;;;;5066619;28;20079;-85
2022/05/23 05:12:57;;;;;;;8.50;3.55;;;13.10;99.90;;;;;;5084736;28;20044;-85
2022/05/23 05:15:26;;;;;;;8.60;3.08;;;13.20;99.90;;;;;;5070663;28;20060;-85
2022/05/23 05:17:51;;;;;;;7.10;3.17;;;13.40;99.90;;;;;;5053663;28;20117;-85
2022/05/23 05:20:19;;;;;;;8.85;3.40;;;13.50;99.90;;;;;;5052707;28;20080;-85
2022/05/23 05:22:45;;;;;;;7.78;3.10;;;13.60;99.90;;;;;;5070829;28;20059;-84
2022/05/23 05:25:12;;;;;;;9.73;3.30;;;13.70;99.90;;;;;;5052703;28;20048;-85
2022/05/23 05:27:38;;;;;;;11.75;3.55;;;14.00;99.90;;;;;;5053023;28;20044;-85
2022/05/23 05:30:06;;;;;;;7.82;3.38;;;13.90;99.90;;;;;;5069950;28;20388;-85
2022/05/23 05:32:42;;;;;;;11.00;3.50;;;14.00;99.90;;;;;;5085316;28;20052;-85
2022/05/23 05:35:25;;;;;;;11.07;3.28;;;14.10;99.90;;;;;;5068942;28;20427;-85
2022/05/23 05:37:58;;;;;;;7.93;3.17;;;14.20;99.90;;;;;;5053551;28;20054;-84
2022/05/23 05:40:28;;;;;;;8.73;3.80;;;14.20;99.90;;;;;;5069272;28;20049;-84
2022/05/23 05:43:00;;;;;;;6.65;3.55;;;14.30;99.90;;;;;;5069456;28;20048;-85
2022/05/23 05:45:32;;;;;;;9.32;3.50;;;14.30;99.90;;;;;;5056754;28;20368;-84
2022/05/23 05:47:59;;;;;;;11.30;4.10;;;14.50;99.90;;;;;;5079063;28;20504;-85
2022/05/23 05:50:30;;;;;;;10.90;4.20;;;14.50;99.90;;;;;;5065207;28;20124;-85
2022/05/23 05:53:00;;;;;;;9.48;4.28;;;14.50;99.90;;;;;;5062281;28;20079;-85
2022/05/23 05:55:27;;;;;;;12.05;3.85;;;14.50;99.90;;;;;;5070160;28;20055;-92
2022/05/23 05:57:53;;;;;;;9.50;4.70;;;14.50;99.90;;;;;;5070060;28;20052;-85
2022/05/23 06:00:19;;;;;;;11.80;4.78;;;14.60;99.90;;;;;;5077622;28;20135;-85
2022/05/23 06:02:45;;;;;;;9.10;4.35;;;14.60;99.90;;;;;;5073636;28;20040;-92
2022/05/23 06:05:11;;;;;;;10.07;4.20;;;14.70;99.90;;;;;;5068808;28;20128;-87
2022/05/23 06:13:07;;;;;;;11.35;4.88;;;15.00;99.90;;;;;;5095964;28;20054;-85
2022/05/23 06:15:33;;;;;;;12.35;4.55;;;15.10;99.90;;;;;;5078535;28;20041;-86
2022/05/23 06:17:59;;;;;;;9.27;4.50;;;15.30;99.90;;;;;;5078811;28;20406;-86
2022/05/23 06:20:25;;;;;;;12.05;4.70;;;15.30;99.90;;;;;;5062856;28;20043;-86
2022/05/23 06:22:51;;;;;;;12.80;4.82;;;15.30;99.90;;;;;;5079192;28;20044;-86
2022/05/23 06:25:18;;;;;;;9.77;5.18;;;15.30;99.90;;;;;;5060654;28;20104;-87
2022/05/23 06:27:44;;;;;;;12.88;5.00;;;15.40;99.90;;;;;;5068279;28;20047;-86
2022/05/23 06:30:13;;;;;;;16.92;5.50;;;15.40;99.90;;;;;;5060627;28;20488;-86
2022/05/23 06:32:39;;;;;;;16.45;6.22;;;15.50;99.90;;;;;;5061379;28;20040;-86
2022/05/23 06:35:07;;;;;;;14.25;5.65;;;15.60;99.90;;;;;;5079884;28;20548;-87
2022/05/23 06:37:35;;;;;;;11.65;5.68;;;15.70;99.90;;;;;;5078149;28;20040;-86
2022/05/23 06:40:04;;;;;;;12.52;5.75;;;15.80;99.90;;;;;;5061563;28;20044;-87
2022/05/23 06:42:32;;;;;;;14.75;6.38;;;16.00;99.90;;;;;;5085706;28;20037;-87
2022/05/23 06:45:05;;;;;;;13.65;5.45;;;16.10;99.90;;;;;;5078968;28;20072;-87
2022/05/23 06:47:31;;;;;;;10.32;5.72;;;16.30;99.90;;;;;;5061539;28;20047;-88
2022/05/23 06:49:57;;;;;;;12.70;5.22;;;16.30;99.90;;;;;;5080777;28;20048;-88
2022/05/23 06:52:23;;;;;;;13.77;5.70;;;16.30;99.90;;;;;;5078742;28;20096;-88
2022/05/23 06:54:48;;;;;;;12.63;5.30;;;16.40;99.90;;;;;;5063145;28;20462;-87
2022/05/23 06:57:14;;;;;;;10.27;5.38;;;16.50;99.90;;;;;;5064341;28;20499;-87
2022/05/23 06:59:40;;;;;;;11.00;5.30;;;16.50;99.90;;;;;;5065803;28;20067;-88
2022/05/23 07:02:09;;;;;;;13.65;5.30;;;16.50;99.90;;;;;;5078811;28;20033;-88
2022/05/23 07:12:49;;;;;;;12.07;5.22;;;16.90;99.90;;;;;;5074024;28;20068;-89
2022/05/23 07:15:14;;;;;;;11.68;5.50;;;17.10;99.90;;;;;;5079808;28;20428;-89
2022/05/23 07:17:40;;;;;;;12.30;5.20;;;17.20;99.90;;;;;;5085380;28;20077;-89
2022/05/23 07:20:07;;;;;;;11.18;5.05;;;17.30;99.90;;;;;;5068813;28;20056;-89
2022/05/23 07:22:32;;;;;;;12.63;5.10;;;17.40;99.90;;;;;;5072915;28;20040;-90
2022/05/23 07:24:59;;;;;;;12.65;5.60;;;17.40;99.90;;;;;;5069484;28;20143;-88
2022/05/23 07:27:27;;;;;;;11.63;4.72;;;17.50;99.90;;;;;;5069529;28;20095;-89
2022/05/23 07:29:52;;;;;;;11.68;4.82;;;17.70;99.90;;;;;;5070850;28;20039;-88
2022/05/23 07:32:18;;;;;;;10.48;4.50;;;17.70;99.90;;;;;;5080112;28;20676;-88
2022/05/23 07:34:44;;;;;;;14.25;4.55;;;17.90;99.90;;;;;;5062991;28;20464;-88
2022/05/23 07:37:11;;;;;;;11.00;4.60;;;17.90;99.90;;;;;;5069808;28;20032;-89
2022/05/23 07:39:38;;;;;;;10.63;4.68;;;18.00;99.90;;;;;;5087964;28;20051;-89
2022/05/23 07:42:05;;;;;;;10.25;4.65;;;18.20;99.90;;;;;;5087118;28;20048;-88
2022/05/23 07:44:31;;;;;;;11.77;4.30;;;18.40;99.90;;;;;;5066707;28;20051;-88
2022/05/23 07:46:57;;;;;;;9.52;4.75;;;18.40;99.90;;;;;;5053262;28;20128;-89
2022/05/23 07:49:23;;;;;;;11.57;4.60;;;18.50;99.90;;;;;;5070034;28;20040;-87
2022/05/23 07:51:49;;;;;;;11.82;4.97;;;18.50;99.90;;;;;;5070029;28;20117;-88
2022/05/23 08:02:27;;;;;;;10.52;4.25;;;18.70;99.90;;;;;;5088623;28;20051;-90
2022/05/23 08:04:54;;;;;;;12.98;4.15;;;18.80;99.90;;;;;;5071987;28;20044;-91
2022/05/23 08:07:20;;;;;;;11.40;4.53;;;19.00;99.90;;;;;;5088802;28;20040;-90
2022/05/23 08:09:45;;;;;;;8.68;3.70;;;19.10;99.90;;;;;;5087343;28;20048;-89
2022/05/23 08:12:15;;;;;;;8.25;3.80;;;19.20;99.90;;;;;;5070069;28;20078;-90
2022/05/23 08:14:41;;;;;;;9.32;4.20;;;19.40;99.90;;;;;;5071744;28;20040;-90
2022/05/23 08:17:07;;;;;;;8.98;4.00;;;19.40;99.90;;;;;;5071629;28;20046;-91
2022/05/23 08:19:33;;;;;;;8.38;4.20;;;19.50;99.90;;;;;;5070860;28;20047;-88
2022/05/23 08:21:59;;;;;;;8.80;4.05;;;19.60;99.90;;;;;;5067524;28;20403;-90
2022/05/23 08:24:25;;;;;;;9.00;4.10;;;19.70;99.90;;;;;;5082082;28;20052;-89
2022/05/23 08:26:53;;;;;;;9.10;4.40;;;19.80;99.90;;;;;;5062051;28;20047;-90
2022/05/23 08:29:18;;;;;;;7.55;4.03;;;19.80;99.90;;;;;;5080421;28;20041;-90
2022/05/23 08:31:44;;;;;;;6.53;3.72;;;19.80;99.90;;;;;;5071169;28;20092;-88
2022/05/23 08:34:10;;;;;;;13.00;4.18;;;19.80;99.90;;;;;;5086292;28;20036;-88
2022/05/23 08:36:36;;;;;;;10.18;4.10;;;19.90;99.90;;;;;;5069295;28;20043;-88
2022/05/23 08:39:02;;;;;;;11.63;4.20;;;20.00;99.90;;;;;;5085919;28;20108;-87
2022/05/23 08:41:32;;;;;;;9.30;4.50;;;20.10;99.90;;;;;;5086954;28;20087;-87
2022/05/23 08:44:13;;;;;;;9.60;4.03;;;20.20;99.90;;;;;;5069654;28;20403;-88
2022/05/23 08:47:02;;;;;;;8.48;4.15;;;20.40;99.90;;;;;;5069428;28;20055;-87
2022/05/23 08:49:49;;;;;;;10.95;4.40;;;20.60;99.90;;;;;;5073307;28;20047;-87
2022/05/23 08:52:34;;;;;;;12.32;4.18;;;20.80;99.90;;;;;;5090005;28;20499;-87
2022/05/23 08:55:02;;;;;;;11.45;4.25;;;20.90;99.90;;;;;;5073027;28;20083;-88
2022/05/23 08:57:38;;;;;;;9.75;3.67;;;21.00;99.90;;;;;;5074798;28;20726;-88
2022/05/23 09:00:17;;;;;;;11.85;3.88;;;20.90;99.90;;;;;;5069240;28;20403;-88
2022/05/23 09:02:52;;;;;;;13.70;3.60;;;20.90;99.90;;;;;;5070296;28;20048;-87
2022/05/23 09:05:22;;;;;;;8.23;3.40;;;20.90;99.90;;;;;;5069531;28;20514;-88
2022/05/23 09:07:54;;;;;;;13.25;4.07;;;21.00;99.90;;;;;;5069598;28;20057;-87
2022/05/23 09:10:29;;;;;;;12.05;3.70;;;21.00;99.90;;;;;;5069957;28;20849;-88
2022/05/23 09:12:57;;;;;;;11.77;4.53;;;21.00;99.90;;;;;;5069362;28;20052;-88
2022/05/23 09:15:24;;;;;;;15.13;4.40;;;21.10;99.90;;;;;;5068220;28;20049;-88
2022/05/23 09:17:56;;;;;;;11.48;5.40;;;21.20;99.90;;;;;;5053641;28;20140;-87
2022/05/23 09:20:35;;;;;;;13.00;4.93;;;21.40;99.90;;;;;;5071431;28;20261;-88
2022/05/23 09:23:07;;;;;;;11.75;4.78;;;21.60;99.90;;;;;;5069105;28;20138;-87
2022/05/23 09:25:33;;;;;;;11.13;4.33;;;21.90;99.90;;;;;;5054139;28;20052;-86
2022/05/23 09:28:20;;;;;;;11.05;3.95;;;22.10;99.90;;;;;;5069347;28;20136;-88
2022/05/23 09:30:55;;;;;;;12.27;3.75;;;22.30;99.90;;;;;;5073698;28;20050;-88
2022/05/23 09:33:22;;;;;;;9.63;3.97;;;22.50;99.90;;;;;;5072832;28;20035;-87
2022/05/23 09:35:51;;;;;;;9.05;3.70;;;22.70;99.90;;;;;;5072797;28;20104;-87
2022/05/23 09:38:20;;;;;;;8.50;3.55;;;22.80;99.90;;;;;;5072663;28;20043;-87
2022/05/23 09:40:47;;;;;;;10.60;3.10;;;22.80;99.90;;;;;;5073416;28;20100;-86
2022/05/23 09:49:08;;;;;;;7.78;2.35;;;23.20;99.90;;;;;;5089804;28;20058;-87
2022/05/23 09:51:48;;;;;;;7.63;2.50;;;23.40;99.90;;;;;;5072391;28;20055;-90
2022/05/23 09:54:20;;;;;;;9.65;2.58;;;23.60;99.90;;;;;;5074426;28;20039;-87
2022/05/23 09:56:47;;;;;;;10.05;2.60;;;23.60;99.90;;;;;;5072989;28;20098;-89
2022/05/23 09:59:24;;;;;;;6.03;2.30;;;23.70;99.90;;;;;;5067655;28;20040;-90
2022/05/23 10:01:50;;;;;;;8.63;2.35;;;23.90;99.90;;;;;;5067961;28;20040;-89
2022/05/23 10:04:22;;;;;;;9.63;2.53;;;23.90;99.90;;;;;;5069073;28;20044;-89
2022/05/23 10:06:50;;;;;;;5.72;2.05;;;24.00;99.90;;;;;;5070362;28;20071;-91
2022/05/23 10:09:25;;;;;;;6.25;2.20;;;24.10;99.90;;;;;;5068585;28;20076;-90
2022/05/23 10:11:57;;;;;;;9.05;2.53;;;24.00;99.90;;;;;;5071332;28;20434;-91
2022/05/23 10:14:25;;;;;;;9.82;2.20;;;24.00;99.90;;;;;;5071160;28;20051;-90
2022/05/23 10:16:55;;;;;;;6.70;2.15;;;24.00;99.90;;;;;;5071497;28;20044;-92
2022/05/23 10:19:33;;;;;;;7.93;2.35;;;24.00;99.90;;;;;;5071509;28;20040;-92
2022/05/23 10:22:16;;;;;;;5.72;1.95;;;24.00;99.90;;;;;;5071881;28;20036;-91
2022/05/23 10:24:55;;;;;;;12.00;2.63;;;23.90;99.90;;;;;;5071986;28;20056;-91
2022/05/23 10:27:34;;;;;;;8.82;2.40;;;24.00;99.90;;;;;;5071281;28;20051;-91
2022/05/23 10:30:03;;;;;;;10.38;2.35;;;23.90;99.90;;;;;;5070921;28;20059;-92
2022/05/23 10:32:32;;;;;;;6.53;2.00;;;23.90;99.90;;;;;;5071430;28;20047;-92
2022/05/23 10:35:08;;;;;;;8.70;1.65;;;23.90;99.90;;;;;;5072139;28;20052;-92
2022/05/23 10:37:36;;;;;;;7.30;1.83;;;23.90;99.90;;;;;;5072400;28;20052;-93
2022/05/23 10:43:14;;;;;;;5.57;2.17;;;24.10;99.90;;;;;;5087938;28;20589;-91
2022/05/23 10:45:47;;;;;;;6.10;1.98;;;24.20;99.90;;;;;;5069209;28;20052;-91
2022/05/23 10:48:22;;;;;;;6.30;2.08;;;24.40;99.90;;;;;;5072609;28;20391;-88
2022/05/23 10:51:00;;;;;;;5.38;1.63;;;24.60;99.90;;;;;;5088178;28;20072;-89
2022/05/23 10:53:40;;;;;;;6.40;1.35;;;24.70;99.90;;;;;;5069902;28;20044;-88
2022/05/23 10:56:19;;;;;;;12.07;1.83;;;24.80;99.90;;;;;;5087120;28;20036;-88
2022/05/23 10:58:59;;;;;;;7.80;2.05;;;24.90;99.90;;;;;;5069446;28;20048;-88
2022/05/23 11:01:31;;;;;;;11.00;2.20;;;25.00;99.90;;;;;;5068922;28;20040;-87
2022/05/23 11:04:16;;;;;;;17.48;4.07;;;25.10;99.90;;;;;;5069317;28;20056;-88
2022/05/23 11:07:02;;;;;;;8.30;2.30;;;25.10;99.90;;;;;;5085704;28;20048;-88
2022/05/23 11:09:34;;;;;;;8.68;2.50;;;25.20;99.90;;;;;;5069290;28;20499;-88
2022/05/23 11:12:20;;;;;;;14.70;3.35;;;25.40;99.90;;;;;;5069959;28;20044;-87
2022/05/23 11:14:51;;;;;;;11.55;2.30;;;25.50;99.90;;;;;;5071480;28;20802;-88
2022/05/23 11:17:28;;;;;;;11.38;2.03;;;25.70;99.90;;;;;;5070668;28;20051;-87
2022/05/23 11:20:05;;;;;;;10.68;2.30;;;25.90;99.90;;;;;;5070887;28;20044;-87
2022/05/23 11:22:35;;;;;;;7.05;1.80;;;26.10;99.90;;;;;;5087249;28;20755;-88
2022/05/23 11:25:24;;;;;;;7.55;1.50;;;26.10;99.90;;;;;;5070327;28;20123;-87
2022/05/23 11:33:47;;;;;;;5.30;1.40;;;26.30;98.70;;;;;;5086531;28;20189;-85
2022/05/23 11:36:23;;;;;;;9.32;1.50;;;26.30;99.50;;;;;;5068001;28;20052;-87
2022/05/23 11:38:50;;;;;;;5.43;1.35;;;26.30;99.90;;;;;;5064233;28;20044;-87
2022/05/23 11:41:39;;;;;;;8.50;1.17;;;26.30;99.70;;;;;;5074187;28;20131;-87
2022/05/23 11:44:42;;;;;;;5.55;1.15;;;26.30;97.40;;;;;;5061411;28;20052;-87
2022/05/23 11:47:11;;;;;;;6.72;1.63;;;26.10;96.60;;;;;;5084132;28;20066;-87
2022/05/23 11:49:44;;;;;;;8.90;1.10;;;26.00;96.10;;;;;;5079794;28;20052;-86
2022/05/23 11:52:31;;;;;;;4.82;1.35;;;26.00;95.60;;;;;;5085531;28;20055;-86
2022/05/23 11:54:56;;;;;;;15.30;1.90;;;25.90;94.10;;;;;;5085277;28;20055;-87
2022/05/23 11:57:31;;;;;;;11.13;1.70;;;25.70;94.80;;;;;;5066233;28;20032;-86
2022/05/23 11:59:58;;;;;;;14.27;1.80;;;25.60;94.70;;;;;;5084381;28;20044;-85
2022/05/23 12:02:26;;;;;;;5.70;1.30;;;25.40;96.30;;;;;;5068428;28;20492;-89
2022/05/23 12:04:54;;;;;;;12.05;1.75;;;25.40;96.70;;;;;;5067926;28;20090;-87
2022/05/23 12:07:53;;;;;;;4.65;1.17;;;25.40;97.10;;;;;;5084701;28;20044;-87
2022/05/23 12:10:22;;;;;;;5.93;1.02;;;25.60;97.20;;;;;;5085932;28;20052;-87
2022/05/23 12:13:08;;;;;;;5.60;1.10;;;25.70;96.00;;;;;;5069054;28;20075;-87
2022/05/23 12:15:43;;;;;;;3.50;1.23;;;25.90;95.70;;;;;;5068047;28;20427;-86
2022/05/23 12:18:29;;;;;;;13.90;1.45;;;26.00;96.60;;;;;;5058392;28;20050;-84
2022/05/23 12:20:58;;;;;;;5.75;1.10;;;26.00;95.90;;;;;;5084853;28;20051;-87
2022/05/23 12:23:39;;;;;;;8.00;1.20;;;26.00;94.90;;;;;;5065810;28;20056;-86
2022/05/23 12:26:18;;;;;;;6.85;1.25;;;26.00;94.10;;;;;;5084117;28;20055;-87
2022/05/23 12:28:57;;;;;;;5.20;1.27;;;25.90;94.10;;;;;;5063561;28;20495;-87
2022/05/23 12:31:27;;;;;;;3.83;1.15;;;25.90;94.90;;;;;;5084223;28;20044;-89
2022/05/23 12:34:17;;;;;;;5.07;1.20;;;26.00;94.60;;;;;;5070454;28;20039;-90
2022/05/23 12:36:50;;;;;;;4.13;1.35;;;26.20;93.40;;;;;;5068057;28;20105;-86
2022/05/23 12:39:49;;;;;;;5.93;1.33;;;26.20;93.80;;;;;;5066092;28;20090;-87
2022/05/23 12:42:27;;;;;;;7.28;1.17;;;26.20;93.90;;;;;;5066680;28;20462;-86
2022/05/23 12:45:04;;;;;;;6.78;1.55;;;26.30;94.20;;;;;;5068012;28;20210;-88
2022/05/23 12:47:52;;;;;;;3.75;1.40;;;26.20;93.20;;;;;;5064967;28;20044;-86
2022/05/23 12:50:24;;;;;;;16.63;1.83;;;26.10;92.90;;;;;;5067542;28;20109;-88
2022/05/23 12:53:21;;;;;;;4.57;1.23;;;25.90;94.30;;;;;;5066571;28;20547;-88
2022/05/23 12:56:13;;;;;;;3.65;1.27;;;25.70;93.70;;;;;;5068205;28;20218;-88
2022/05/23 12:59:29;;;;;;;9.98;1.50;;;25.50;94.10;;;;;;5050618;28;20131;-88
2022/05/23 13:02:02;;;;;;;7.22;1.33;;;25.30;94.50;;;;;;5066990;28;20048;-88
2022/05/23 13:04:34;;;;;;;5.05;1.20;;;25.10;94.40;;;;;;5070991;28;20044;-89
2022/05/23 13:07:12;;;;;;;6.30;1.42;;;25.10;94.70;;;;;;5068174;28;20418;-89
2022/05/23 13:09:48;;;;;;;6.55;1.42;;;25.00;94.90;;;;;;5069619;28;20120;-89
2022/05/23 13:12:23;;;;;;;8.63;1.65;;;24.90;95.30;;;;;;5059194;28;20074;-89
2022/05/23 13:14:58;;;;;;;8.15;1.30;;;24.80;95.60;;;;;;5067106;28;20044;-87
2022/05/23 13:17:44;;;;;;;8.52;1.35;;;24.80;95.90;;;;;;5084317;28;20047;-88
2022/05/23 13:23:09;;;;;;;7.93;1.50;;;24.70;96.20;;;;;;5092114;28;20048;-91
2022/05/23 13:25:36;;;;;;;5.28;1.52;;;24.60;97.10;;;;;;5064597;28;20044;-87
2022/05/23 13:28:07;;;;;;;6.13;1.88;;;24.50;97.30;;;;;;5059915;28;20127;-86
2022/05/23 13:30:38;;;;;;;12.85;1.70;;;24.50;97.40;;;;;;5080339;28;20131;-84
2022/05/23 13:33:17;;;;;;;6.00;1.70;;;24.50;97.50;;;;;;5063070;28;20048;-84
2022/05/23 13:35:44;;;;;;;10.13;1.65;;;24.40;97.50;;;;;;5081395;28;20060;-84
2022/05/23 13:38:16;;;;;;;4.40;1.40;;;24.50;98.30;;;;;;5077835;28;20047;-83
2022/05/23 13:40:45;;;;;;;5.63;1.90;;;24.40;98.20;;;;;;5062704;28;20055;-84
2022/05/23 13:43:31;;;;;;;8.68;1.50;;;24.40;97.90;;;;;;5079120;28;20048;-83
2022/05/23 13:46:04;;;;;;;9.07;1.50;;;24.30;98.40;;;;;;5081734;28;20052;-82
2022/05/23 13:48:38;;;;;;;7.13;1.40;;;24.20;99.00;;;;;;5087188;28;20121;-83
2022/05/23 13:51:11;;;;;;;9.55;1.83;;;24.20;99.40;;;;;;5089315;28;20048;-82
2022/05/23 13:53:43;;;;;;;18.50;2.92;;;24.10;99.60;;;;;;5089280;28;20048;-83
2022/05/23 13:56:10;;;;;;;10.98;1.70;;;24.10;99.50;;;;;;5088281;28;20040;-83
2022/05/23 13:58:46;;;;;;;9.70;1.52;;;24.00;99.50;;;;;;5072078;28;20051;-83